Time;durP1;ratioP1;P1;durP2;ratioP2;P2;SDS_P1;SDS_P2;PMS_P1;PMS_P2;Temp;Humidity;BMP_temperature;BMP_pressure;BME280_temperature;BME280_humidity;BME280_pressure;Samples;Min_cycle;Max_cycle;Signal;HPM_P1;HPM_P2
2021/05/21 00:01:18;;;;;;;2.58;1.30;;;;;;;10.75;97.90;100193.36;1743652;82;21033;-44
2021/05/21 00:03:45;;;;;;;4.53;1.40;;;;;;;10.75;97.88;100194.66;1743825;82;20954;-44
2021/05/21 00:06:11;;;;;;;4.42;1.37;;;;;;;10.72;97.82;100199.91;1743772;82;21058;-43
2021/05/21 00:08:39;;;;;;;6.45;1.77;;;;;;;10.69;97.80;100201.28;1743669;82;21041;-43
2021/05/21 00:11:06;;;;;;;1.72;1.20;;;;;;;10.67;97.78;100200.89;1743757;82;21091;-43
2021/05/21 00:13:32;;;;;;;1.40;1.30;;;;;;;10.63;97.75;100188.48;1743571;82;21054;-43
2021/05/21 00:15:59;;;;;;;2.17;1.27;;;;;;;10.60;97.75;100189.39;1743722;82;20916;-43
2021/05/21 00:18:25;;;;;;;2.90;0.90;;;;;;;10.59;97.78;100188.12;1743717;82;21820;-44
2021/05/21 00:20:52;;;;;;;1.55;1.25;;;;;;;10.55;97.78;100186.06;1743675;82;21488;-44
2021/05/21 00:23:19;;;;;;;4.65;1.07;;;;;;;10.51;97.83;100171.92;1743671;82;20980;-43
2021/05/21 00:25:45;;;;;;;3.67;1.12;;;;;;;10.46;97.83;100168.14;1743788;82;21023;-43
2021/05/21 00:28:12;;;;;;;2.05;1.00;;;;;;;10.41;97.86;100169.56;1743597;80;21001;-43
2021/05/21 00:30:38;;;;;;;2.17;0.85;;;;;;;10.36;97.86;100170.08;1743585;82;21104;-43
2021/05/21 00:33:05;;;;;;;7.00;1.45;;;;;;;10.31;97.80;100166.28;1743529;82;20910;-44
2021/05/21 00:35:32;;;;;;;3.52;1.17;;;;;;;10.29;97.80;100173.23;1743538;82;21033;-43
2021/05/21 00:37:58;;;;;;;3.90;0.98;;;;;;;10.24;97.76;100171.63;1743481;82;20974;-43
2021/05/21 00:40:25;;;;;;;1.42;1.10;;;;;;;10.15;97.69;100180.42;1745743;82;21002;-44
2021/05/21 00:42:51;;;;;;;2.47;1.00;;;;;;;10.08;97.57;100182.28;1751882;82;21128;-44
2021/05/21 00:45:18;;;;;;;3.20;1.50;;;;;;;10.03;97.46;100188.86;1751713;81;21052;-44
2021/05/21 00:47:45;;;;;;;1.40;1.15;;;;;;;9.99;97.38;100183.34;1751824;82;20902;-43
2021/05/21 00:50:13;;;;;;;2.52;1.27;;;;;;;9.93;97.29;100184.73;1751754;82;20969;-43
2021/05/21 00:52:42;;;;;;;5.92;1.37;;;;;;;9.88;97.19;100195.19;1751939;82;21037;-44
2021/05/21 00:55:10;;;;;;;2.40;1.07;;;;;;;9.86;97.18;100194.38;1751931;82;21621;-43
2021/05/21 00:57:37;;;;;;;2.40;1.20;;;;;;;9.88;97.26;100211.13;1751847;82;20969;-43
2021/05/21 01:00:06;;;;;;;3.60;1.10;;;;;;;9.89;97.37;100211.54;1751768;82;20985;-43
2021/05/21 01:02:32;;;;;;;2.05;1.07;;;;;;;9.92;97.38;100212.77;1751966;82;20945;-44
2021/05/21 01:04:59;;;;;;;4.08;1.50;;;;;;;9.93;97.42;100214.47;1751774;82;21070;-44
2021/05/21 01:07:25;;;;;;;2.60;0.93;;;;;;;9.92;97.40;100220.52;1751970;81;21097;-44
2021/05/21 01:09:52;;;;;;;3.05;0.90;;;;;;;9.93;97.37;100227.40;1751825;81;20981;-44
2021/05/21 01:12:18;;;;;;;1.32;0.95;;;;;;;9.90;97.28;100228.33;1752019;82;21624;-43
2021/05/21 01:14:49;;;;;;;2.15;0.90;;;;;;;9.86;97.26;100228.41;1751928;82;21655;-43
2021/05/21 01:17:16;;;;;;;1.75;0.80;;;;;;;9.84;97.21;100225.00;1751884;82;20953;-44
2021/05/21 01:19:43;;;;;;;2.37;1.07;;;;;;;9.82;97.17;100224.18;1751715;82;21098;-43
2021/05/21 01:22:09;;;;;;;2.12;0.88;;;;;;;9.76;97.18;100222.12;1751759;82;21013;-43
2021/05/21 01:24:36;;;;;;;2.83;0.98;;;;;;;9.70;97.20;100220.93;1751876;82;21013;-44
2021/05/21 01:27:04;;;;;;;4.42;1.12;;;;;;;9.66;97.25;100219.29;1751908;81;20949;-43
2021/05/21 01:29:31;;;;;;;5.80;0.95;;;;;;;9.64;97.30;100217.17;1752036;82;20938;-44
2021/05/21 01:32:01;;;;;;;2.17;0.95;;;;;;;9.63;97.33;100224.09;1751823;82;21111;-44
2021/05/21 01:34:29;;;;;;;8.50;0.93;;;;;;;9.62;97.37;100226.27;1751838;82;20993;-43
2021/05/21 01:36:56;;;;;;;0.72;0.72;;;;;;;9.60;97.40;100218.11;1751823;82;21005;-44
2021/05/21 01:39:22;;;;;;;9.20;1.35;;;;;;;9.57;97.42;100216.42;1751900;81;21020;-43
2021/05/21 01:41:49;;;;;;;1.10;0.82;;;;;;;9.55;97.44;100218.19;1746014;82;20914;-43
2021/05/21 01:44:15;;;;;;;2.80;0.90;;;;;;;9.54;97.45;100223.40;1743660;82;21089;-43
2021/05/21 01:46:44;;;;;;;2.00;1.05;;;;;;;9.54;97.41;100222.11;1743481;82;21044;-43
2021/05/21 01:49:11;;;;;;;2.90;1.05;;;;;;;9.54;97.42;100222.11;1743686;82;20978;-44
2021/05/21 01:51:59;;;;;;;0.80;0.80;;;;;;;9.54;97.47;100225.53;1743610;82;21042;-44
2021/05/21 01:54:28;;;;;;;2.47;1.10;;;;;;;9.55;97.48;100225.11;1743520;82;21567;-43
2021/05/21 01:56:57;;;;;;;1.30;0.95;;;;;;;9.54;97.50;100225.53;1743671;82;21110;-43
2021/05/21 01:59:25;;;;;;;1.60;0.75;;;;;;;9.55;97.50;100223.81;1742772;82;21524;-42
2021/05/21 02:01:52;;;;;;;3.87;0.90;;;;;;;9.55;97.55;100221.23;1743704;82;20875;-42
2021/05/21 02:04:38;;;;;;;1.87;0.80;;;;;;;9.55;97.54;100216.06;1743549;82;20946;-42
2021/05/21 02:07:03;;;;;;;1.87;1.27;;;;;;;9.56;97.50;100208.72;1742751;82;20922;-42
2021/05/21 02:09:57;;;;;;;1.52;0.62;;;;;;;9.56;97.60;100207.42;1743550;82;21082;-42
2021/05/21 02:12:24;;;;;;;2.95;0.90;;;;;;;9.57;97.61;100205.25;1743528;82;21010;-42
2021/05/21 02:14:53;;;;;;;4.40;0.80;;;;;;;9.58;97.63;100209.54;1743554;82;20939;-43
2021/05/21 02:17:19;;;;;;;1.00;0.88;;;;;;;9.56;97.59;100207.42;1743487;82;21116;-43
2021/05/21 02:19:47;;;;;;;1.65;1.07;;;;;;;9.54;97.61;100202.73;1743675;82;21012;-43
2021/05/21 02:22:17;;;;;;;4.72;1.10;;;;;;;9.55;97.64;100210.89;1743673;82;21054;-42
2021/05/21 02:24:42;;;;;;;3.47;1.10;;;;;;;9.55;97.65;100210.89;1743218;82;21009;-42
2021/05/21 02:27:09;;;;;;;4.00;1.07;;;;;;;9.55;97.68;100207.85;1743442;81;20943;-42
2021/05/21 02:29:35;;;;;;;1.12;0.82;;;;;;;9.58;97.79;100218.59;1743420;82;20919;-42
2021/05/21 02:32:02;;;;;;;3.90;1.20;;;;;;;9.59;97.81;100219.00;1743600;82;20982;-42
2021/05/21 02:34:28;;;;;;;5.05;0.80;;;;;;;9.60;97.81;100224.58;1743697;82;21102;-43
2021/05/21 02:36:55;;;;;;;1.85;0.95;;;;;;;9.61;97.87;100238.78;1743537;82;20965;-43
2021/05/21 02:39:22;;;;;;;5.53;1.00;;;;;;;9.63;97.89;100240.02;1743588;82;20994;-42
2021/05/21 02:41:49;;;;;;;2.17;1.20;;;;;;;9.63;97.88;100252.52;1746744;82;20966;-42
2021/05/21 02:44:15;;;;;;;3.40;0.90;;;;;;;9.63;97.90;100260.70;1749150;82;21013;-42
2021/05/21 02:46:42;;;;;;;1.55;0.88;;;;;;;9.66;97.99;100267.10;1749149;82;21102;-42
2021/05/21 02:49:09;;;;;;;2.95;1.35;;;;;;;9.69;98.04;100261.88;1749002;82;21025;-42
2021/05/21 02:51:35;;;;;;;1.92;0.95;;;;;;;9.73;98.07;100262.26;1749050;82;20954;-42
2021/05/21 02:54:03;;;;;;;3.47;1.10;;;;;;;9.75;97.98;100254.45;1749169;82;20890;-42
2021/05/21 02:56:29;;;;;;;3.62;0.90;;;;;;;9.73;97.85;100252.34;1749160;82;21598;-42
2021/05/21 02:58:56;;;;;;;3.58;0.90;;;;;;;9.69;97.76;100247.66;1749238;82;21878;-42
2021/05/21 03:01:23;;;;;;;5.50;1.40;;;;;;;9.68;97.79;100251.13;1749189;82;21634;-42
2021/05/21 03:03:50;;;;;;;3.87;1.22;;;;;;;9.70;97.83;100250.66;1749341;82;21578;-42
2021/05/21 03:06:16;;;;;;;1.27;0.90;;;;;;;9.68;97.77;100243.37;1749453;82;21626;-42
2021/05/21 03:08:43;;;;;;;2.83;1.10;;;;;;;9.66;97.73;100236.09;1749351;82;22157;-43
2021/05/21 03:11:09;;;;;;;1.92;1.47;;;;;;;9.63;97.76;100242.61;1749274;82;21661;-42
2021/05/21 03:13:36;;;;;;;3.35;1.00;;;;;;;9.60;97.80;100240.95;1749261;82;21452;-42
2021/05/21 03:16:04;;;;;;;1.45;1.22;;;;;;;9.58;97.83;100237.97;1749242;82;21550;-42
2021/05/21 03:18:30;;;;;;;2.02;1.00;;;;;;;9.58;97.88;100241.38;1749138;82;20994;-43
2021/05/21 03:20:57;;;;;;;2.30;0.80;;;;;;;9.58;97.91;100237.97;1749257;82;21693;-42
2021/05/21 03:23:23;;;;;;;3.27;1.20;;;;;;;9.56;97.95;100241.02;1721997;82;21672;-43
2021/05/21 03:25:50;;;;;;;1.17;0.95;;;;;;;9.54;98.01;100242.33;1749257;82;21001;-43
2021/05/21 03:28:16;;;;;;;1.70;0.90;;;;;;;9.54;98.07;100235.86;1749375;80;20914;-43
2021/05/21 03:30:43;;;;;;;1.92;0.90;;;;;;;9.52;98.05;100235.50;1749376;82;20957;-43
2021/05/21 03:33:09;;;;;;;1.90;1.05;;;;;;;9.51;98.06;100242.84;1749284;82;20906;-43
2021/05/21 03:35:37;;;;;;;3.67;1.05;;;;;;;9.52;98.10;100247.13;1749211;82;20898;-43
2021/05/21 03:38:05;;;;;;;2.55;1.17;;;;;;;9.50;98.07;100244.55;1749341;82;20871;-43
2021/05/21 03:40:33;;;;;;;1.12;1.00;;;;;;;9.53;98.17;100250.13;1749208;82;21594;-43
2021/05/21 03:43:00;;;;;;;7.75;1.20;;;;;;;9.55;98.23;100249.20;1749266;82;20910;-43
2021/05/21 03:45:27;;;;;;;2.72;1.02;;;;;;;9.57;98.26;100251.31;1749337;82;20946;-43
2021/05/21 03:47:53;;;;;;;3.00;1.20;;;;;;;9.60;98.30;100254.30;1749181;82;20983;-43
2021/05/21 03:50:21;;;;;;;1.50;0.95;;;;;;;9.63;98.33;100250.36;1749167;82;20942;-43
2021/05/21 03:52:48;;;;;;;2.47;1.20;;;;;;;9.66;98.40;100250.30;1749372;82;20891;-43
2021/05/21 03:55:16;;;;;;;9.70;1.17;;;;;;;9.72;98.44;100250.64;1749383;82;21586;-43
2021/05/21 03:57:42;;;;;;;1.85;0.75;;;;;;;9.77;98.47;100251.41;1749319;82;20982;-43
2021/05/21 04:00:12;;;;;;;3.90;0.80;;;;;;;9.82;98.50;100255.20;1749127;82;21707;-43
2021/05/21 04:02:39;;;;;;;3.75;1.12;;;;;;;9.86;98.47;100250.38;1749152;82;21002;-43
2021/05/21 04:05:07;;;;;;;2.00;1.00;;;;;;;9.88;98.47;100246.90;1749342;82;20986;-43
2021/05/21 04:07:34;;;;;;;1.72;0.80;;;;;;;9.92;98.51;100251.13;1749154;82;20994;-43
2021/05/21 04:10:01;;;;;;;3.87;1.20;;;;;;;9.96;98.47;100257.53;1749321;82;20938;-43
2021/05/21 04:12:28;;;;;;;5.20;0.90;;;;;;;9.97;98.44;100254.06;1749319;82;21037;-43
2021/05/21 04:14:55;;;;;;;1.55;0.72;;;;;;;9.99;98.50;100258.34;1721760;82;20954;-43
2021/05/21 04:17:23;;;;;;;3.15;0.60;;;;;;;10.03;98.52;100259.97;1749143;82;21010;-43
2021/05/21 04:19:51;;;;;;;1.98;1.00;;;;;;;10.03;98.45;100254.80;1749149;82;21510;-43
2021/05/21 04:22:17;;;;;;;1.50;0.88;;;;;;;10.02;98.37;100252.23;1749236;82;21325;-43
2021/05/21 04:24:44;;;;;;;1.72;0.80;;;;;;;10.00;98.41;100259.17;1749332;82;21829;-43
2021/05/21 04:27:10;;;;;;;1.65;0.72;;;;;;;10.00;98.29;100259.17;1749157;80;21535;-43
2021/05/21 04:29:37;;;;;;;2.47;0.70;;;;;;;9.99;98.19;100261.34;1749218;82;22460;-43
2021/05/21 04:32:06;;;;;;;2.80;0.65;;;;;;;10.00;98.12;100258.74;1749220;82;20950;-43
2021/05/21 04:34:33;;;;;;;0.82;0.50;;;;;;;9.98;97.96;100259.22;1749207;82;20978;-43
2021/05/21 04:37:00;;;;;;;3.67;0.80;;;;;;;9.98;97.81;100264.81;1749255;82;21058;-42
2021/05/21 04:39:26;;;;;;;2.70;0.68;;;;;;;9.98;97.66;100264.81;1749211;82;20969;-42
2021/05/21 04:41:56;;;;;;;4.60;0.70;;;;;;;10.02;97.61;100269.04;1749244;82;20918;-42
2021/05/21 04:44:22;;;;;;;2.72;0.60;;;;;;;10.02;97.45;100264.73;1749167;82;21045;-43
2021/05/21 04:46:48;;;;;;;1.75;0.55;;;;;;;10.05;97.39;100262.52;1749323;82;20997;-43
2021/05/21 04:49:32;;;;;;;3.45;0.60;;;;;;;10.10;97.20;100265.02;1749254;82;21092;-42
2021/05/21 04:51:44;;;;;;;7.40;0.70;;;;;;;10.09;96.97;100268.03;1745927;82;20914;-43
2021/05/21 04:54:11;;;;;;;1.37;0.50;;;;;;;10.13;96.95;100269.70;1749310;82;21514;-43
2021/05/21 04:56:37;;;;;;;0.72;0.57;;;;;;;10.14;96.73;100266.66;1749308;82;21048;-43
2021/05/21 04:59:04;;;;;;;1.40;0.33;;;;;;;10.14;96.48;100270.54;1749098;82;20994;-43
2021/05/21 05:01:30;;;;;;;1.05;0.47;;;;;;;10.12;96.18;100273.17;1749204;82;21813;-44
2021/05/21 05:03:57;;;;;;;2.50;0.33;;;;;;;10.11;95.81;100270.17;1749242;82;20919;-43
2021/05/21 05:06:23;;;;;;;1.55;0.50;;;;;;;10.11;95.67;100279.66;1749211;82;20954;-43
2021/05/21 05:08:50;;;;;;;1.45;0.40;;;;;;;10.08;95.33;100284.44;1749312;82;21557;-44
2021/05/21 05:11:16;;;;;;;2.45;0.40;;;;;;;10.10;94.80;100287.00;1749154;82;21136;-41
2021/05/21 05:13:43;;;;;;;0.80;0.42;;;;;;;10.10;94.48;100288.30;1749328;82;21585;-41
2021/05/21 05:16:10;;;;;;;0.40;0.40;;;;;;;10.11;94.21;100295.17;1749183;82;20974;-42
2021/05/21 05:18:36;;;;;;;0.57;0.40;;;;;;;10.12;93.90;100287.83;1749165;82;20979;-42
2021/05/21 05:21:06;;;;;;;5.78;0.40;;;;;;;10.14;93.41;100289.94;1749207;82;21510;-42
2021/05/21 05:23:33;;;;;;;1.67;0.50;;;;;;;10.17;93.25;100294.63;1749086;82;20929;-42
2021/05/21 05:25:59;;;;;;;0.42;0.40;;;;;;;10.21;93.01;100297.55;1749230;82;21046;-42
2021/05/21 05:28:25;;;;;;;0.82;0.57;;;;;;;10.28;92.81;100300.02;1749061;80;21017;-43
2021/05/21 05:30:53;;;;;;;0.85;0.30;;;;;;;10.32;92.61;100302.52;1749082;82;21021;-42
2021/05/21 05:33:20;;;;;;;0.88;0.50;;;;;;;10.37;92.41;100296.40;1749019;82;21101;-42
2021/05/21 05:35:47;;;;;;;0.45;0.40;;;;;;;10.41;92.05;100298.06;1749211;82;21444;-42
2021/05/21 05:38:13;;;;;;;0.95;0.53;;;;;;;10.44;91.76;100292.40;1749113;82;21084;-42
2021/05/21 05:40:40;;;;;;;1.37;0.35;;;;;;;10.48;91.36;100300.51;1749075;82;21025;-42
2021/05/21 05:43:06;;;;;;;1.25;0.47;;;;;;;10.55;91.35;100301.23;1744905;82;21535;-42
2021/05/21 05:45:33;;;;;;;0.42;0.42;;;;;;;10.64;91.36;100298.45;1743563;82;21566;-42
2021/05/21 05:47:59;;;;;;;0.93;0.40;;;;;;;10.77;91.28;100302.08;1743677;82;20958;-42
2021/05/21 05:50:26;;;;;;;1.82;0.40;;;;;;;10.84;91.04;100304.94;1743646;82;21065;-42
2021/05/21 05:52:52;;;;;;;0.75;0.55;;;;;;;10.93;90.84;100311.20;1743639;82;21029;-42
2021/05/21 05:55:18;;;;;;;1.12;0.40;;;;;;;11.01;90.75;100310.20;1743661;82;20985;-42
2021/05/21 05:57:45;;;;;;;0.40;0.40;;;;;;;11.10;90.48;100307.81;1743681;82;21026;-42
2021/05/21 06:00:13;;;;;;;0.42;0.42;;;;;;;11.16;90.33;100298.17;1743605;82;20926;-42
2021/05/21 06:02:40;;;;;;;1.10;0.40;;;;;;;11.27;90.14;100303.56;1743543;82;21662;-43
2021/05/21 06:05:07;;;;;;;0.70;0.50;;;;;;;11.39;90.16;100300.66;1743509;82;21468;-43
2021/05/21 06:07:34;;;;;;;1.60;0.53;;;;;;;11.52;89.86;100297.32;1743594;82;20867;-43
2021/05/21 06:10:00;;;;;;;0.50;0.50;;;;;;;11.61;89.34;100299.67;1743554;82;20938;-42
2021/05/21 06:12:27;;;;;;;0.60;0.50;;;;;;;11.69;88.71;100302.54;1743603;82;20954;-42
2021/05/21 06:14:53;;;;;;;0.50;0.50;;;;;;;11.72;88.35;100301.16;1743683;82;21079;-42
2021/05/21 06:17:20;;;;;;;2.85;0.42;;;;;;;11.73;87.78;100302.86;1743411;82;20915;-41
2021/05/21 06:19:47;;;;;;;1.50;0.62;;;;;;;11.78;87.50;100312.23;1743701;82;20993;-42
2021/05/21 06:22:14;;;;;;;0.75;0.60;;;;;;;11.84;87.23;100315.09;1743471;82;20907;-43
2021/05/21 06:24:43;;;;;;;0.72;0.50;;;;;;;11.86;86.87;100315.06;1743707;82;20954;-41
2021/05/21 06:29:35;;;;;;;1.40;0.62;;;;;;;12.04;86.63;100312.02;1743645;82;21574;-43
2021/05/21 06:32:02;;;;;;;5.33;0.70;;;;;;;12.14;86.25;100306.58;1743686;82;21519;-43
2021/05/21 06:34:29;;;;;;;0.60;0.60;;;;;;;12.21;86.15;100306.80;1743680;82;21085;-43
2021/05/21 06:36:56;;;;;;;2.80;0.50;;;;;;;12.31;85.99;100304.38;1743603;82;20999;-43
2021/05/21 06:39:22;;;;;;;5.62;0.68;;;;;;;12.41;86.14;100302.38;1743486;82;21858;-43
2021/05/21 06:41:49;;;;;;;0.75;0.65;;;;;;;12.39;84.92;100300.70;1743840;82;21582;-43
2021/05/21 06:44:15;;;;;;;2.72;0.70;;;;;;;12.34;84.69;100301.69;1749234;82;21495;-43
2021/05/21 06:46:41;;;;;;;2.05;0.80;;;;;;;12.39;84.67;100302.86;1749130;82;21579;-43
2021/05/21 06:49:11;;;;;;;1.95;0.60;;;;;;;12.47;84.41;100301.33;1749032;82;21765;-41
2021/05/21 06:51:37;;;;;;;4.45;0.95;;;;;;;12.55;84.39;100295.48;1749026;82;21117;-41
2021/05/21 06:54:05;;;;;;;2.17;0.80;;;;;;;12.63;84.08;100302.59;1749012;82;21610;-41
2021/05/21 06:58:31;;;;;;;3.62;0.78;;;;;;;12.71;83.10;100295.88;1776419;79;22647;-42
2021/05/21 07:00:57;;;;;;;6.37;0.70;;;;;;;12.68;82.46;100305.06;1749090;80;20966;-41
2021/05/21 07:03:28;;;;;;;5.80;0.50;;;;;;;12.68;82.51;100301.16;1749307;82;21085;-41
2021/05/21 07:05:52;;;;;;;0.60;0.60;;;;;;;12.69;82.03;100302.00;1748692;82;21037;-42
2021/05/21 07:08:20;;;;;;;5.67;0.80;;;;;;;12.74;82.10;100302.70;1748969;82;20859;-42
2021/05/21 07:10:47;;;;;;;2.90;0.70;;;;;;;12.77;81.72;100307.84;1748951;82;21017;-42
2021/05/21 07:13:16;;;;;;;3.90;0.50;;;;;;;12.78;80.84;100308.23;1749208;82;20942;-42
2021/05/21 07:15:44;;;;;;;1.42;0.40;;;;;;;12.85;80.52;100309.75;1749170;82;21101;-42
2021/05/21 07:18:11;;;;;;;3.72;0.60;;;;;;;12.91;80.31;100305.66;1748859;82;21052;-42
2021/05/21 07:20:40;;;;;;;1.40;0.60;;;;;;;12.97;78.91;100305.06;1749058;82;20955;-42
2021/05/21 07:23:06;;;;;;;3.30;0.53;;;;;;;13.01;78.63;100297.13;1748833;81;20974;-42
2021/05/21 07:25:33;;;;;;;2.65;0.70;;;;;;;13.06;78.51;100305.63;1749016;82;20944;-41
2021/05/21 07:27:59;;;;;;;1.60;0.70;;;;;;;13.14;78.23;100305.39;1739271;82;21059;-42
2021/05/21 07:30:26;;;;;;;4.37;0.90;;;;;;;13.21;78.18;100304.30;1719052;83;20962;-42
2021/05/21 07:32:52;;;;;;;1.00;0.62;;;;;;;13.26;77.69;100298.09;1719301;83;20859;-42
2021/05/21 07:35:19;;;;;;;0.50;0.50;;;;;;;13.29;77.33;100296.72;1719155;83;20962;-42
2021/05/21 07:37:46;;;;;;;1.85;0.50;;;;;;;13.37;77.37;100293.41;1719342;83;20942;-42
2021/05/21 07:40:13;;;;;;;0.72;0.40;;;;;;;13.46;76.87;100301.40;1719127;82;21063;-42
2021/05/21 07:42:40;;;;;;;2.12;0.60;;;;;;;13.50;75.72;100297.32;1719178;83;20982;-42
2021/05/21 07:45:07;;;;;;;1.52;0.70;;;;;;;13.56;74.50;100303.25;1719149;83;20906;-42
2021/05/21 07:47:34;;;;;;;1.15;0.50;;;;;;;13.61;74.59;100301.33;1718994;83;20985;-42
2021/05/21 07:50:05;;;;;;;0.65;0.50;;;;;;;13.72;73.43;100308.31;1719185;83;20886;-42
2021/05/21 07:52:31;;;;;;;1.55;0.60;;;;;;;13.90;73.52;100309.89;1718334;83;21032;-41
2021/05/21 07:55:01;;;;;;;2.60;0.53;;;;;;;14.08;72.74;100309.26;1719096;83;21618;-41
2021/05/21 07:57:27;;;;;;;2.05;0.40;;;;;;;14.29;72.75;100309.84;1719443;83;20883;-41
2021/05/21 07:59:54;;;;;;;1.22;0.70;;;;;;;14.47;70.23;100308.30;1720045;83;21097;-41
2021/05/21 08:02:20;;;;;;;1.35;0.60;;;;;;;14.65;70.04;100314.58;1720062;83;20895;-41
2021/05/21 08:04:47;;;;;;;2.00;0.55;;;;;;;14.94;69.64;100313.97;1719877;83;21164;-41
2021/05/21 08:07:14;;;;;;;2.08;0.72;;;;;;;15.41;67.82;100310.36;1719861;83;20906;-41
2021/05/21 08:09:43;;;;;;;3.72;1.10;;;;;;;15.95;67.86;100311.20;1719552;83;20910;-41
2021/05/21 08:12:11;;;;;;;1.47;0.70;;;;;;;16.50;67.05;100314.44;1719374;83;20977;-41
2021/05/21 08:14:39;;;;;;;1.35;0.70;;;;;;;16.81;61.02;100317.41;1719291;82;21554;-42
2021/05/21 08:17:07;;;;;;;2.27;0.60;;;;;;;16.84;59.30;100321.63;1719457;83;21239;-41
2021/05/21 08:19:33;;;;;;;2.37;0.70;;;;;;;16.70;59.81;100323.14;1719401;82;20953;-41
2021/05/21 08:22:00;;;;;;;0.85;0.50;;;;;;;16.69;59.49;100329.73;1719471;83;21452;-41
2021/05/21 08:24:27;;;;;;;1.37;0.60;;;;;;;16.65;60.05;100331.18;1719390;83;20966;-41
2021/05/21 08:26:53;;;;;;;0.75;0.75;;;;;;;16.56;59.30;100338.14;1719424;82;21001;-41
2021/05/21 08:29:20;;;;;;;4.47;0.78;;;;;;;16.66;59.02;100335.48;1719265;82;20998;-41
2021/05/21 08:31:46;;;;;;;0.60;0.60;;;;;;;16.77;60.26;100339.36;1719341;83;20958;-41
2021/05/21 08:34:13;;;;;;;3.42;0.80;;;;;;;16.83;59.52;100332.56;1719532;83;21022;-41
2021/05/21 08:36:39;;;;;;;1.75;0.93;;;;;;;16.77;57.28;100331.08;1719318;83;20981;-41
2021/05/21 08:39:06;;;;;;;0.57;0.57;;;;;;;16.77;58.49;100340.22;1692759;83;20954;-41
2021/05/21 08:41:32;;;;;;;1.75;0.70;;;;;;;16.91;59.32;100330.88;1719491;83;21080;-41
2021/05/21 08:43:59;;;;;;;6.78;0.80;;;;;;;17.04;56.92;100335.09;1719406;82;20994;-41
2021/05/21 08:46:26;;;;;;;2.12;0.80;;;;;;;17.00;58.32;100334.86;1719447;83;21116;-41
2021/05/21 08:49:00;;;;;;;1.42;0.98;;;;;;;17.12;58.54;100329.06;1719301;82;21555;-42
2021/05/21 08:51:30;;;;;;;0.98;0.90;;;;;;;17.07;57.87;100327.13;1719397;83;21348;-41
2021/05/21 08:53:57;;;;;;;3.62;0.88;;;;;;;16.97;59.06;100334.97;1719276;83;21108;-41
2021/05/21 08:56:24;;;;;;;1.60;0.70;;;;;;;17.05;58.49;100338.09;1719242;83;21511;-41
2021/05/21 08:58:51;;;;;;;1.77;0.98;;;;;;;17.12;56.50;100335.59;1707442;83;20951;-41
2021/05/21 09:01:19;;;;;;;1.10;0.88;;;;;;;17.32;59.09;100337.72;1705754;83;21022;-42
2021/05/21 09:03:48;;;;;;;1.27;1.07;;;;;;;17.60;56.91;100340.28;1705812;84;20963;-41
2021/05/21 09:06:20;;;;;;;1.25;0.53;;;;;;;17.62;55.33;100343.67;1705898;84;21075;-41
2021/05/21 09:08:53;;;;;;;1.30;0.55;;;;;;;17.26;54.93;100349.77;1705718;84;20935;-41
2021/05/21 09:11:33;;;;;;;0.53;0.47;;;;;;;17.04;56.68;100352.09;1705818;84;20919;-41
2021/05/21 09:14:20;;;;;;;0.80;0.60;;;;;;;17.11;55.86;100352.66;1705801;84;20947;-41
2021/05/21 09:16:48;;;;;;;2.42;0.72;;;;;;;17.26;56.17;100365.45;1705977;83;21034;-41
2021/05/21 09:19:17;;;;;;;3.37;0.60;;;;;;;17.49;55.38;100362.58;1705825;83;21119;-41
2021/05/21 09:22:07;;;;;;;0.40;0.40;;;;;;;17.62;53.97;100368.53;1705690;84;20998;-41
2021/05/21 09:24:39;;;;;;;2.87;0.33;;;;;;;17.56;52.69;100370.98;1705866;83;21590;-42
2021/05/21 09:27:06;;;;;;;0.50;0.42;;;;;;;17.30;53.63;100378.77;1705963;84;20987;-42
2021/05/21 09:29:39;;;;;;;3.55;0.30;;;;;;;17.12;53.80;100380.05;1705951;82;21520;-42
2021/05/21 09:32:33;;;;;;;3.05;0.25;;;;;;;17.14;53.99;100386.05;1705782;84;21144;-40
2021/05/21 09:35:18;;;;;;;0.42;0.25;;;;;;;17.35;53.49;100382.03;1705856;84;20990;-41
2021/05/21 09:37:56;;;;;;;1.72;0.42;;;;;;;17.71;52.33;100364.62;1705835;83;20946;-41
2021/05/21 09:40:28;;;;;;;0.37;0.37;;;;;;;17.93;50.30;100370.44;1705771;84;20994;-41
2021/05/21 09:43:03;;;;;;;2.35;0.30;;;;;;;17.95;50.87;100370.38;1705907;83;21492;-41
2021/05/21 09:45:34;;;;;;;0.90;0.40;;;;;;;17.84;52.13;100370.08;1705743;84;21675;-42
2021/05/21 09:48:10;;;;;;;0.65;0.33;;;;;;;17.61;52.04;100377.30;1705821;83;21504;-41
2021/05/21 09:50:43;;;;;;;2.17;0.40;;;;;;;17.46;52.16;100376.29;1705811;84;21042;-41
2021/05/21 09:53:15;;;;;;;12.37;0.75;;;;;;;17.42;54.39;100370.34;1705823;84;20887;-41
2021/05/21 09:55:56;;;;;;;0.60;0.60;;;;;;;17.57;53.77;100363.99;1705940;84;20903;-41
2021/05/21 09:58:40;;;;;;;2.30;0.55;;;;;;;17.73;54.67;100354.44;1713228;83;21697;-41
2021/05/21 10:01:13;;;;;;;2.67;0.53;;;;;;;17.93;54.02;100359.97;1719245;82;21005;-41
2021/05/21 10:03:46;;;;;;;2.10;1.05;;;;;;;18.06;52.81;100358.94;1719707;82;20914;-41
2021/05/21 10:06:13;;;;;;;0.68;0.50;;;;;;;18.03;52.56;100360.38;1719361;83;21356;-41
2021/05/21 10:08:41;;;;;;;1.12;0.60;;;;;;;18.03;53.50;100349.07;1719274;83;21488;-41
2021/05/21 10:11:08;;;;;;;1.90;0.50;;;;;;;18.24;53.23;100354.95;1719335;83;21084;-41
2021/05/21 10:13:36;;;;;;;2.42;1.20;;;;;;;18.23;52.07;100366.36;1719314;83;21041;-41
2021/05/21 10:16:04;;;;;;;3.47;0.50;;;;;;;18.21;52.41;100359.91;1719158;83;20918;-42
2021/05/21 10:18:30;;;;;;;0.90;0.50;;;;;;;18.22;52.67;100356.81;1719013;83;21551;-41
2021/05/21 10:20:57;;;;;;;0.68;0.40;;;;;;;18.41;52.03;100354.06;1719019;83;21053;-42
2021/05/21 10:23:29;;;;;;;2.87;0.35;;;;;;;18.54;52.44;100350.33;1718721;83;21655;-41
2021/05/21 10:25:56;;;;;;;5.50;0.53;;;;;;;18.76;51.23;100347.86;1719111;83;20953;-41
2021/05/21 10:28:27;;;;;;;0.57;0.40;;;;;;;18.90;52.65;100351.03;1718644;82;21440;-42
2021/05/21 10:31:00;;;;;;;0.72;0.30;;;;;;;19.44;52.91;100338.87;1719157;83;21017;-41
2021/05/21 10:33:36;;;;;;;5.17;0.72;;;;;;;19.74;49.63;100342.44;1718795;83;21018;-41
2021/05/21 10:36:31;;;;;;;4.62;0.80;;;;;;;19.80;49.71;100347.31;1719086;83;21110;-41
2021/05/21 10:39:21;;;;;;;2.85;0.45;;;;;;;19.72;49.26;100351.70;1719277;83;21021;-41
2021/05/21 10:42:19;;;;;;;1.85;0.75;;;;;;;19.61;48.29;100356.75;1719385;83;21502;-41
2021/05/21 10:44:50;;;;;;;5.05;1.80;;;;;;;19.52;48.92;100369.45;1718030;83;21056;-41
2021/05/21 10:47:25;;;;;;;2.30;1.00;;;;;;;19.35;49.39;100358.61;1692681;83;21471;-41
2021/05/21 10:50:03;;;;;;;2.60;1.20;;;;;;;19.35;50.57;100365.66;1719347;83;23032;-42
2021/05/21 10:52:55;;;;;;;3.60;0.57;;;;;;;19.42;49.86;100365.67;1718941;83;20946;-42
2021/05/21 10:55:53;;;;;;;1.65;0.40;;;;;;;19.37;50.01;100374.28;1718698;83;21009;-41
2021/05/21 10:58:31;;;;;;;0.40;0.40;;;;;;;19.51;51.07;100382.20;1706077;81;20959;-42
2021/05/21 11:01:15;;;;;;;3.77;0.40;;;;;;;19.75;50.99;100380.88;1726547;83;20894;-43
2021/05/21 11:04:06;;;;;;;7.00;0.70;;;;;;;19.99;49.48;100385.66;1726542;83;21106;-41
2021/05/21 11:06:51;;;;;;;5.10;1.67;;;;;;;19.94;49.28;100382.81;1726609;83;20997;-41
2021/05/21 11:09:26;;;;;;;2.70;0.50;;;;;;;19.73;50.27;100385.38;1718074;83;20973;-41
2021/05/21 11:12:06;;;;;;;0.78;0.40;;;;;;;19.70;50.27;100380.28;1709176;83;22181;-41
2021/05/21 11:14:45;;;;;;;0.80;0.50;;;;;;;19.58;50.25;100381.84;1725928;83;21657;-41
2021/05/21 11:17:21;;;;;;;1.85;0.50;;;;;;;19.46;49.45;100386.87;1724820;83;21122;-41
2021/05/21 11:20:00;;;;;;;4.15;0.65;;;;;;;19.35;48.71;100384.85;1726076;83;21087;-41
2021/05/21 11:22:33;;;;;;;5.75;0.50;;;;;;;19.25;48.84;100385.00;1726488;83;20969;-41
2021/05/21 11:25:13;;;;;;;2.05;0.80;;;;;;;19.25;49.85;100394.19;1726632;83;20965;-41
2021/05/21 11:27:40;;;;;;;0.80;0.50;;;;;;;19.16;49.39;100395.54;1725687;83;20978;-41
2021/05/21 11:30:10;;;;;;;2.92;0.50;;;;;;;18.91;49.51;100396.86;1726620;83;21103;-41
2021/05/21 11:32:40;;;;;;;3.90;0.70;;;;;;;18.86;49.28;100400.20;1726509;83;21048;-41
2021/05/21 11:35:09;;;;;;;0.72;0.30;;;;;;;18.73;49.39;100404.39;1726772;83;20937;-41
2021/05/21 11:37:35;;;;;;;2.92;0.65;;;;;;;18.70;51.37;100403.25;1726297;83;21315;-41
2021/05/21 11:40:04;;;;;;;4.80;0.50;;;;;;;18.77;50.77;100396.74;1721696;83;20926;-41